createdAt,value
2023-03-18T00:02:38.161Z,0.20
2023-03-18T00:05:40.822Z,0.10
2023-03-18T00:08:45.293Z,0.20
2023-03-18T00:11:47.176Z,0.20
2023-03-18T00:14:48.794Z,0.20
2023-03-18T00:17:50.418Z,0.20
2023-03-18T00:20:51.970Z,0.10
2023-03-18T00:23:56.592Z,0.20
2023-03-18T00:26:58.227Z,0.10
2023-03-18T00:29:59.769Z,0.20
2023-03-18T00:33:01.401Z,0.20
2023-03-18T00:36:03.215Z,0.20
2023-03-18T00:39:05.092Z,0.20
2023-03-18T00:42:10.761Z,0.20
2023-03-18T00:45:12.493Z,0.22
2023-03-18T00:48:14.561Z,0.20
2023-03-18T00:51:18.007Z,0.20
2023-03-18T00:54:20.905Z,0.10
2023-03-18T00:57:22.836Z,0.13
2023-03-18T01:00:26.274Z,0.10
2023-03-18T01:03:27.932Z,0.10
2023-03-18T01:06:32.543Z,0.30
2023-03-18T01:09:34.487Z,0.20
2023-03-18T01:12:36.161Z,0.20
2023-03-18T01:15:37.796Z,0.10
2023-03-18T01:18:40.748Z,0.20
2023-03-18T01:21:42.329Z,0.20
2023-03-18T01:24:45.140Z,0.10
2023-03-18T01:27:46.679Z,0.13
2023-03-18T01:30:49.332Z,0.13
2023-03-18T01:33:51.912Z,0.10
2023-03-18T01:36:55.780Z,0.20
2023-03-18T01:39:58.446Z,0.20
2023-03-18T01:43:17.763Z,0.30
2023-03-18T01:46:34.163Z,0.20
2023-03-18T01:49:39.771Z,0.10
2023-03-18T01:52:42.721Z,0.20
2023-03-18T01:55:47.247Z,0.20
2023-03-18T01:58:54.066Z,0.10
2023-03-18T02:02:04.106Z,0.20
2023-03-18T02:05:08.358Z,0.20
2023-03-18T02:08:10.004Z,0.20
2023-03-18T02:11:11.837Z,0.20
2023-03-18T02:14:15.024Z,0.20
2023-03-18T02:17:21.377Z,0.20
2023-03-18T02:20:40.905Z,0.20
2023-03-18T02:23:51.646Z,0.20
2023-03-18T02:27:03.535Z,0.10
2023-03-18T02:30:10.411Z,0.20
2023-03-18T02:33:15.231Z,0.20
2023-03-18T02:36:23.988Z,0.20
2023-03-18T02:39:26.004Z,0.30
2023-03-18T02:42:31.911Z,0.20
2023-03-18T02:45:51.104Z,0.20
2023-03-18T02:48:54.043Z,0.20
2023-03-18T02:51:56.198Z,0.10
2023-03-18T02:54:59.303Z,0.10
2023-03-18T02:58:01.043Z,0.13
2023-03-18T03:01:03.513Z,0.20
2023-03-18T03:04:06.951Z,0.10
2023-03-18T03:07:08.675Z,0.20
2023-03-18T03:10:10.987Z,0.30
2023-03-18T03:13:13.239Z,0.20
2023-03-18T03:16:16.748Z,0.10
2023-03-18T03:19:18.388Z,0.10
2023-03-18T03:22:20.066Z,0.10
2023-03-18T03:25:22.649Z,0.20
2023-03-18T03:28:24.233Z,0.20
2023-03-18T03:31:27.432Z,0.20
2023-03-18T03:34:29.222Z,0.20
2023-03-18T03:37:30.950Z,0.10
2023-03-18T03:40:32.693Z,0.20
2023-03-18T03:43:34.639Z,0.20
2023-03-18T03:46:36.256Z,0.20
2023-03-18T03:49:38.195Z,0.20
2023-03-18T03:52:40.181Z,0.20
2023-03-18T03:55:41.776Z,0.10
2023-03-18T03:58:45.828Z,0.22
2023-03-18T04:01:47.476Z,0.10
2023-03-18T04:04:49.301Z,0.20
2023-03-18T04:07:51.472Z,0.17
2023-03-18T04:10:53.454Z,0.20
2023-03-18T04:13:55.326Z,0.30
2023-03-18T04:16:58.196Z,0.20
2023-03-18T04:19:59.765Z,0.20
2023-03-18T04:23:01.545Z,0.20
2023-03-18T04:26:03.107Z,0.15
2023-03-18T04:29:04.902Z,0.20
2023-03-18T04:32:06.992Z,0.20
2023-03-18T04:35:09.581Z,0.15
2023-03-18T04:38:12.154Z,0.20
2023-03-18T04:41:13.772Z,0.20
2023-03-18T04:44:15.334Z,0.20
2023-03-18T04:47:16.937Z,0.20
2023-03-18T04:50:19.129Z,0.13
2023-03-18T04:53:20.786Z,0.10
2023-03-18T04:56:22.372Z,0.20
2023-03-18T04:59:24.178Z,0.17
2023-03-18T05:02:25.714Z,0.20
2023-03-18T05:05:27.534Z,0.20
2023-03-18T05:08:29.072Z,0.15
2023-03-18T05:11:30.681Z,0.20
2023-03-18T05:14:32.266Z,0.20
2023-03-18T05:17:34.015Z,0.30
2023-03-18T05:20:36.166Z,0.20
2023-03-18T05:23:38.016Z,0.20
2023-03-18T05:26:39.628Z,0.20
2023-03-18T05:29:41.902Z,0.20
2023-03-18T05:32:43.607Z,0.20
2023-03-18T05:35:46.136Z,0.20
2023-03-18T05:38:47.726Z,0.20
2023-03-18T05:41:49.287Z,0.20
2023-03-18T05:44:50.856Z,0.30
2023-03-18T05:47:53.038Z,0.20
2023-03-18T05:50:54.642Z,0.20
2023-03-18T05:53:56.618Z,0.20
2023-03-18T05:56:58.415Z,0.20
2023-03-18T06:00:00.138Z,0.20
2023-03-18T06:03:02.003Z,0.25
2023-03-18T06:06:03.901Z,0.30
2023-03-18T06:09:06.987Z,0.20
2023-03-18T06:12:08.772Z,0.20
2023-03-18T06:15:12.094Z,0.20
2023-03-18T06:18:14.905Z,0.20
2023-03-18T06:21:16.519Z,0.20
2023-03-18T06:24:18.835Z,0.20
2023-03-18T06:27:20.405Z,0.20
2023-03-18T06:30:22.407Z,0.30
2023-03-18T06:33:25.834Z,0.20
2023-03-18T06:36:27.432Z,0.20
2023-03-18T06:39:29.014Z,0.20
2023-03-18T06:42:30.538Z,0.30
2023-03-18T06:45:33.021Z,0.25
2023-03-18T06:48:35.298Z,0.20
2023-03-18T06:51:36.897Z,0.20
2023-03-18T06:54:38.476Z,0.28
2023-03-18T06:57:40.425Z,0.20
2023-03-18T07:00:45.469Z,0.20
2023-03-18T07:03:47.136Z,0.30
2023-03-18T07:06:48.647Z,0.20
2023-03-18T07:09:50.852Z,0.25
2023-03-18T07:12:52.483Z,0.20
2023-03-18T07:15:56.647Z,0.20
2023-03-18T07:18:59.199Z,0.30
2023-03-18T07:22:00.769Z,0.30
2023-03-18T07:25:02.546Z,0.10
2023-03-18T07:28:05.807Z,0.13
2023-03-18T07:31:07.858Z,0.30
2023-03-18T07:34:10.200Z,0.30
2023-03-18T07:37:11.909Z,0.30
2023-03-18T07:40:14.758Z,0.22
2023-03-18T07:43:17.401Z,0.20
2023-03-18T07:46:19.160Z,0.20
2023-03-18T07:49:20.718Z,0.20
2023-03-18T07:52:22.289Z,0.20
2023-03-18T07:55:24.443Z,0.25
2023-03-18T07:58:26.684Z,0.20
2023-03-18T08:01:28.876Z,0.28
2023-03-18T08:04:31.849Z,0.30
2023-03-18T08:07:34.799Z,0.28
2023-03-18T08:10:36.711Z,0.30
2023-03-18T08:13:39.530Z,0.30
2023-03-18T08:16:41.830Z,0.20
2023-03-18T08:19:43.914Z,0.30
2023-03-18T08:22:46.092Z,0.25
2023-03-18T08:25:49.966Z,0.20
2023-03-18T08:28:51.670Z,0.22
2023-03-18T08:31:54.273Z,0.22
2023-03-18T08:34:56.741Z,0.30
2023-03-18T08:37:58.326Z,0.40
2023-03-18T08:40:59.928Z,0.30
2023-03-18T08:44:02.828Z,0.35
2023-03-18T08:47:04.552Z,0.30
2023-03-18T08:50:06.530Z,0.30
2023-03-18T08:53:09.390Z,0.30
2023-03-18T08:56:13.023Z,0.30
2023-03-18T08:59:14.702Z,0.30
2023-03-18T09:02:19.318Z,0.20
2023-03-18T09:05:21.561Z,0.30
2023-03-18T09:08:23.803Z,0.28
2023-03-18T09:11:25.456Z,0.30
2023-03-18T09:14:27.646Z,0.30
2023-03-18T09:17:46.975Z,0.30
2023-03-18T09:20:51.382Z,0.30
2023-03-18T09:23:53.015Z,0.20
2023-03-18T09:26:54.719Z,0.20
2023-03-18T09:29:56.811Z,0.30
2023-03-18T09:32:59.304Z,0.30
2023-03-18T09:36:01.185Z,0.30
2023-03-18T09:39:03.056Z,0.28
2023-03-18T09:42:29.415Z,0.45
2023-03-18T09:45:41.572Z,0.30
2023-03-18T09:49:03.124Z,0.22
2023-03-18T09:52:07.623Z,0.22
2023-03-18T09:55:27.385Z,0.10
2023-03-18T09:58:31.960Z,0.20
2023-03-18T10:01:38.023Z,0.30
2023-03-18T10:04:54.616Z,0.25
2023-03-18T10:08:01.898Z,0.50
2023-03-18T10:11:08.232Z,0.40
2023-03-18T10:14:27.820Z,0.22
2023-03-18T10:17:35.559Z,0.20
2023-03-18T10:20:59.387Z,0.20
2023-03-18T10:24:20.370Z,0.30
2023-03-18T10:27:33.639Z,0.20
2023-03-18T10:31:00.794Z,0.20
2023-03-18T10:34:08.454Z,0.40
2023-03-18T10:37:36.304Z,0.38
2023-03-18T10:40:41.354Z,0.60
2023-03-18T10:43:45.893Z,0.60
2023-03-18T10:46:49.802Z,0.30
2023-03-18T10:50:10.933Z,0.30
2023-03-18T10:53:27.274Z,0.20
2023-03-18T10:56:29.344Z,0.50
2023-03-18T10:59:31.166Z,0.32
2023-03-18T11:02:37.223Z,0.30
2023-03-18T11:05:39.007Z,0.50
2023-03-18T11:08:41.004Z,0.40
2023-03-18T11:11:44.867Z,0.50
2023-03-18T11:14:48.730Z,0.35
2023-03-18T11:17:51.863Z,0.30
2023-03-18T11:21:03.630Z,0.40
2023-03-18T11:24:20.890Z,0.30
2023-03-18T11:27:26.506Z,0.30
2023-03-18T11:30:39.116Z,0.30
2023-03-18T11:33:40.920Z,0.52
2023-03-18T11:36:42.562Z,0.40
2023-03-18T11:39:44.596Z,0.22
2023-03-18T11:42:48.667Z,0.35
2023-03-18T11:45:59.089Z,0.40
2023-03-18T11:49:00.654Z,0.40
2023-03-18T11:52:26.907Z,0.38
2023-03-18T11:55:50.846Z,0.45
2023-03-18T11:59:17.824Z,0.40
2023-03-18T12:02:28.716Z,0.40
2023-03-18T12:06:13.424Z,0.43
2023-03-18T12:09:22.769Z,0.43
2023-03-18T12:12:34.380Z,0.30
2023-03-18T12:15:55.503Z,0.20
2023-03-18T12:19:14.256Z,0.30
2023-03-18T12:22:16.174Z,0.20
2023-03-18T12:25:30.538Z,1.10
2023-03-18T12:28:48.356Z,0.80
2023-03-18T12:32:17.273Z,0.80
2023-03-18T12:35:20.690Z,0.40
2023-03-18T12:38:45.069Z,0.40
2023-03-18T12:42:02.100Z,0.40
2023-03-18T12:45:13.076Z,0.30
2023-03-18T12:48:30.746Z,0.70
2023-03-18T12:52:04.288Z,0.70
2023-03-18T12:55:29.393Z,0.70
2023-03-18T12:58:37.718Z,0.60
2023-03-18T13:01:53.374Z,0.30
2023-03-18T13:04:59.717Z,0.40
2023-03-18T13:08:06.639Z,0.30
2023-03-18T13:11:51.757Z,0.40
2023-03-18T13:15:14.197Z,0.22
2023-03-18T13:18:29.724Z,0.20
2023-03-18T13:21:35.558Z,0.30
2023-03-18T13:24:49.008Z,0.20
2023-03-18T13:28:28.194Z,0.30
2023-03-18T13:31:44.960Z,0.20
2023-03-18T13:35:26.618Z,0.10
2023-03-18T13:38:50.958Z,0.20
2023-03-18T13:42:26.672Z,0.20
2023-03-18T13:45:32.673Z,0.40
2023-03-18T13:48:35.877Z,0.30
2023-03-18T13:51:37.427Z,0.15
2023-03-18T13:54:42.095Z,0.30
2023-03-18T13:58:16.506Z,0.28
2023-03-18T14:01:24.478Z,0.20
2023-03-18T14:04:46.277Z,0.20
2023-03-18T14:07:49.598Z,0.20
2023-03-18T14:11:16.900Z,0.20
2023-03-18T14:14:47.472Z,0.20
2023-03-18T14:17:58.584Z,0.20
2023-03-18T14:21:02.731Z,0.20
2023-03-18T14:24:20.717Z,0.20
2023-03-18T14:27:22.688Z,0.20
2023-03-18T14:30:30.004Z,0.15
2023-03-18T14:33:34.085Z,0.20
2023-03-18T14:36:44.649Z,0.28
2023-03-18T14:39:51.526Z,0.20
2023-03-18T14:42:58.882Z,0.20
2023-03-18T14:46:04.816Z,0.20
2023-03-18T14:49:28.715Z,0.28
2023-03-18T14:52:35.561Z,0.20
2023-03-18T14:55:38.140Z,0.10
2023-03-18T14:58:46.187Z,0.20
2023-03-18T15:01:50.740Z,0.20
2023-03-18T15:04:55.358Z,0.20
2023-03-18T15:07:56.896Z,0.10
2023-03-18T15:10:59.295Z,0.10
2023-03-18T15:14:01.367Z,0.17
2023-03-18T15:17:12.483Z,0.20
2023-03-18T15:20:14.394Z,0.20
2023-03-18T15:23:17.851Z,0.10
2023-03-18T15:26:34.579Z,0.10
2023-03-18T15:29:43.998Z,0.20
2023-03-18T15:32:49.795Z,0.20
2023-03-18T15:35:56.889Z,0.10
2023-03-18T15:38:58.468Z,0.10
2023-03-18T15:42:02.719Z,0.10
2023-03-18T15:45:05.351Z,0.10
2023-03-18T15:48:15.635Z,0.20
2023-03-18T15:51:45.116Z,0.10
2023-03-18T15:54:48.429Z,0.10
2023-03-18T15:57:53.769Z,0.10
2023-03-18T16:00:56.999Z,0.10
2023-03-18T16:04:00.501Z,0.20
2023-03-18T16:07:02.206Z,0.10
2023-03-18T16:10:04.057Z,0.10
2023-03-18T16:13:05.709Z,0.10
2023-03-18T16:16:16.352Z,0.10
2023-03-18T16:19:29.047Z,0.10
2023-03-18T16:22:33.561Z,0.10
2023-03-18T16:25:35.620Z,0.10
2023-03-18T16:28:38.012Z,0.10
2023-03-18T16:31:39.654Z,0.10
2023-03-18T16:34:41.733Z,0.10
2023-03-18T16:37:44.870Z,0.10
2023-03-18T16:40:46.830Z,0.10
2023-03-18T16:43:50.104Z,0.20
2023-03-18T16:46:56.679Z,0.10
2023-03-18T16:49:59.061Z,0.10
2023-03-18T16:53:00.661Z,0.10
2023-03-18T16:56:15.729Z,0.10
2023-03-18T16:59:19.056Z,0.10
2023-03-18T17:02:32.466Z,0.10
2023-03-18T17:05:34.504Z,0.10
2023-03-18T17:08:36.837Z,0.10
2023-03-18T17:11:39.178Z,0.10
2023-03-18T17:14:49.207Z,0.10
2023-03-18T17:17:53.232Z,0.10
2023-03-18T17:20:54.908Z,0.10
2023-03-18T17:23:56.792Z,0.10
2023-03-18T17:26:58.310Z,0.10
2023-03-18T17:30:00.834Z,0.20
2023-03-18T17:33:04.469Z,0.10
2023-03-18T17:36:07.639Z,0.10
2023-03-18T17:39:09.976Z,0.10
2023-03-18T17:42:32.977Z,0.10
2023-03-18T17:45:35.683Z,0.10
2023-03-18T17:48:38.480Z,0.20
2023-03-18T17:51:40.098Z,0.10
2023-03-18T17:54:41.648Z,0.13
2023-03-18T17:57:44.191Z,0.10
2023-03-18T18:00:47.093Z,0.10
2023-03-18T18:03:48.996Z,0.10
2023-03-18T18:06:50.617Z,0.10
2023-03-18T18:09:52.834Z,0.10
2023-03-18T18:12:54.361Z,0.10
2023-03-18T18:15:55.953Z,0.20
2023-03-18T18:18:57.676Z,0.10
2023-03-18T18:22:03.131Z,0.13
2023-03-18T18:25:06.308Z,0.10
2023-03-18T18:28:19.702Z,0.20
2023-03-18T18:31:24.195Z,0.20
2023-03-18T18:34:25.785Z,0.17
2023-03-18T18:37:27.495Z,0.10
2023-03-18T18:40:29.014Z,0.13
2023-03-18T18:43:30.828Z,0.10
2023-03-18T18:46:34.166Z,0.10
2023-03-18T18:49:35.826Z,0.20
2023-03-18T18:52:37.451Z,0.10
2023-03-18T18:55:39.305Z,0.20
2023-03-18T18:58:42.139Z,0.10
2023-03-18T19:01:43.724Z,0.13
2023-03-18T19:04:45.266Z,0.17
2023-03-18T19:07:46.846Z,0.20
2023-03-18T19:10:49.541Z,0.20
2023-03-18T19:13:51.374Z,0.20
2023-03-18T19:16:54.675Z,0.28
2023-03-18T19:19:56.263Z,0.22
2023-03-18T19:22:57.885Z,0.20
2023-03-18T19:26:00.463Z,0.20
2023-03-18T19:29:02.031Z,0.20
2023-03-18T19:32:03.632Z,0.20
2023-03-18T19:35:05.717Z,0.40
2023-03-18T19:38:09.305Z,0.20
2023-03-18T19:41:11.362Z,0.30
2023-03-18T19:44:21.657Z,0.30
2023-03-18T19:47:25.171Z,0.30
2023-03-18T19:50:27.331Z,0.30
2023-03-18T19:53:29.138Z,0.30
2023-03-18T19:56:31.625Z,0.40
2023-03-18T19:59:39.268Z,0.30
2023-03-18T20:02:41.303Z,0.40
2023-03-18T20:05:42.844Z,0.30
2023-03-18T20:08:44.554Z,0.30
2023-03-18T20:11:48.088Z,0.40
2023-03-18T20:14:49.845Z,0.40
2023-03-18T20:17:52.603Z,0.30
2023-03-18T20:20:54.270Z,0.30
2023-03-18T20:24:01.657Z,0.30
2023-03-18T20:27:05.493Z,0.30
2023-03-18T20:30:26.240Z,0.30
2023-03-18T20:33:27.942Z,0.30
2023-03-18T20:36:29.478Z,0.30
2023-03-18T20:39:31.185Z,0.30
2023-03-18T20:42:33.188Z,0.30
2023-03-18T20:45:35.187Z,0.38
2023-03-18T20:48:38.144Z,0.30
2023-03-18T20:51:41.360Z,0.30
2023-03-18T20:54:42.934Z,0.30
2023-03-18T20:57:44.475Z,0.20
2023-03-18T21:00:47.111Z,0.30
2023-03-18T21:03:49.029Z,0.20
2023-03-18T21:06:50.672Z,0.20
2023-03-18T21:09:52.564Z,0.30
2023-03-18T21:12:54.440Z,0.20
2023-03-18T21:15:57.934Z,0.20
2023-03-18T21:19:00.117Z,0.20
2023-03-18T21:22:01.705Z,0.20
2023-03-18T21:25:03.426Z,0.30
2023-03-18T21:28:05.232Z,0.22
2023-03-18T21:31:36.009Z,0.22
2023-03-18T21:34:37.633Z,0.30
2023-03-18T21:37:39.194Z,0.52
2023-03-18T21:40:40.792Z,0.30
2023-03-18T21:43:42.398Z,0.20
2023-03-18T21:46:44.121Z,0.20
2023-03-18T21:49:46.949Z,0.20
2023-03-18T21:52:48.707Z,0.20
2023-03-18T21:55:51.749Z,0.30
2023-03-18T21:58:53.675Z,0.20
2023-03-18T22:01:55.377Z,0.13
2023-03-18T22:04:59.330Z,0.30
2023-03-18T22:08:00.926Z,0.20
2023-03-18T22:11:02.497Z,0.20
2023-03-18T22:14:04.167Z,0.20
2023-03-18T22:17:19.834Z,0.20
2023-03-18T22:20:22.425Z,0.20
2023-03-18T22:23:27.699Z,0.20
2023-03-18T22:26:29.244Z,0.20
2023-03-18T22:29:31.137Z,0.10
2023-03-18T22:32:47.257Z,0.20
2023-03-18T22:35:48.933Z,0.20
2023-03-18T22:38:50.961Z,0.20
2023-03-18T22:41:52.593Z,0.20
2023-03-18T22:44:54.170Z,0.20
2023-03-18T22:47:59.044Z,0.25
2023-03-18T22:51:01.759Z,0.20
2023-03-18T22:54:04.254Z,0.20
2023-03-18T22:57:05.879Z,0.20
2023-03-18T23:00:16.952Z,0.30
2023-03-18T23:03:22.152Z,0.20
2023-03-18T23:06:24.053Z,0.22
2023-03-18T23:09:25.828Z,0.20
2023-03-18T23:12:30.375Z,0.30
2023-03-18T23:15:32.277Z,0.20
2023-03-18T23:18:35.003Z,0.30
2023-03-18T23:21:36.648Z,0.30
2023-03-18T23:24:38.444Z,0.20
2023-03-18T23:27:40.140Z,0.25
2023-03-18T23:30:43.629Z,0.20
2023-03-18T23:33:45.610Z,0.30
2023-03-18T23:36:47.391Z,0.20
2023-03-18T23:39:49.095Z,0.20
2023-03-18T23:42:50.679Z,0.20
2023-03-18T23:45:52.361Z,0.30
2023-03-18T23:48:53.997Z,0.20
2023-03-18T23:51:55.592Z,0.20
2023-03-18T23:54:57.136Z,0.30
2023-03-18T23:57:58.761Z,0.20
